Time;durP1;ratioP1;P1;durP2;ratioP2;P2;SDS_P1;SDS_P2;PMS_P1;PMS_P2;Temp;Humidity;BMP_temperature;BMP_pressure;BME280_temperature;BME280_humidity;BME280_pressure;Samples;Min_cycle;Max_cycle;Signal;HPM_P1;HPM_P2
2022/09/09 00:00:13;;;;;;;5.32;2.17;;;;;;;;;;5014214;28;20046;-91
2022/09/09 00:02:44;;;;;;;3.00;1.85;;;;;;;;;;5029833;28;20050;-91
2022/09/09 00:05:33;;;;;;;5.35;2.40;;;;;;;;;;5029508;28;20049;-93
2022/09/09 00:08:03;;;;;;;6.90;2.65;;;;;;;;;;5014169;28;20053;-91
2022/09/09 00:10:38;;;;;;;3.67;2.15;;;;;;;;;;5014263;28;20045;-92
2022/09/09 00:13:05;;;;;;;5.53;1.90;;;;;;;;;;5029424;28;20482;-90
2022/09/09 00:15:43;;;;;;;2.95;2.30;;;;;;;;;;5029729;28;20473;-92
2022/09/09 00:18:16;;;;;;;3.40;2.00;;;;;;;;;;5029641;28;20049;-90
2022/09/09 00:20:58;;;;;;;3.42;2.03;;;;;;;;;;5029470;28;20060;-90
2022/09/09 00:23:29;;;;;;;2.72;2.25;;;;;;;;;;5013936;28;20053;-92
2022/09/09 00:26:02;;;;;;;3.50;2.00;;;;;;;;;;5029365;28;20061;-91
2022/09/09 00:28:32;;;;;;;4.97;2.17;;;;;;;;;;5029250;28;20498;-92
2022/09/09 00:31:11;;;;;;;4.13;2.25;;;;;;;;;;5029104;28;20494;-91
2022/09/09 00:33:40;;;;;;;6.90;2.17;;;;;;;;;;5029276;28;20060;-92
2022/09/09 00:36:13;;;;;;;4.30;2.10;;;;;;;;;;5029277;28;20574;-91
2022/09/09 00:38:43;;;;;;;2.22;1.98;;;;;;;;;;5029528;28;20050;-90
2022/09/09 00:41:22;;;;;;;2.72;1.85;;;;;;;;;;5029500;28;20406;-92
2022/09/09 00:43:58;;;;;;;4.43;2.42;;;;;;;;;;5029392;28;20050;-92
2022/09/09 00:46:39;;;;;;;3.25;2.15;;;;;;;;;;5029506;28;20057;-92
2022/09/09 00:49:16;;;;;;;3.47;2.00;;;;;;;;;;5029509;28;20045;-91
2022/09/09 00:51:52;;;;;;;4.00;2.30;;;;;;;;;;5014017;28;20046;-91
2022/09/09 00:54:20;;;;;;;4.00;1.73;;;;;;;;;;5014028;28;20562;-90
2022/09/09 00:56:56;;;;;;;2.10;1.83;;;;;;;;;;5029240;28;20042;-92
2022/09/09 00:59:36;;;;;;;3.00;2.00;;;;;;;;;;5014068;28;20172;-90
2022/09/09 01:02:11;;;;;;;4.22;2.28;;;;;;;;;;5014796;28;20136;-91
2022/09/09 01:04:38;;;;;;;2.20;1.98;;;;;;;;;;5036683;28;20056;-91
2022/09/09 01:07:19;;;;;;;4.70;1.83;;;;;;;;;;5047109;28;20053;-90
2022/09/09 01:09:51;;;;;;;3.53;2.22;;;;;;;;;;5018355;28;20050;-91
2022/09/09 01:12:26;;;;;;;1.83;1.67;;;;;;;;;;5017879;28;20046;-90
2022/09/09 01:15:04;;;;;;;2.17;1.98;;;;;;;;;;5032786;28;20061;-93
2022/09/09 01:17:32;;;;;;;3.67;1.90;;;;;;;;;;5032780;28;20413;-94
2022/09/09 01:20:04;;;;;;;3.20;2.13;;;;;;;;;;5016960;28;20517;-93
2022/09/09 01:22:45;;;;;;;2.67;1.70;;;;;;;;;;5032735;28;20410;-92
2022/09/09 01:25:18;;;;;;;5.57;2.17;;;;;;;;;;5032861;28;20132;-91
2022/09/09 01:27:47;;;;;;;19.30;2.53;;;;;;;;;;5017475;28;20544;-89
2022/09/09 01:30:16;;;;;;;2.42;2.10;;;;;;;;;;5016975;28;20045;-90
2022/09/09 01:32:47;;;;;;;3.13;2.08;;;;;;;;;;5036274;28;20057;-90
2022/09/09 01:35:33;;;;;;;5.03;1.98;;;;;;;;;;5035184;28;20109;-91
2022/09/09 01:38:00;;;;;;;2.13;1.98;;;;;;;;;;5035324;28;20049;-91
2022/09/09 01:40:27;;;;;;;2.42;1.88;;;;;;;;;;5035586;28;20049;-91
2022/09/09 01:42:55;;;;;;;5.20;2.38;;;;;;;;;;5035847;28;20402;-91
2022/09/09 01:45:22;;;;;;;2.58;2.10;;;;;;;;;;5035495;28;20053;-92
2022/09/09 01:47:50;;;;;;;3.33;2.13;;;;;;;;;;5035547;28;20410;-91
2022/09/09 01:50:17;;;;;;;3.13;2.17;;;;;;;;;;5035524;28;20056;-90
2022/09/09 01:52:46;;;;;;;8.02;2.33;;;;;;;;;;5036360;28;20054;-91
2022/09/09 01:55:14;;;;;;;2.35;2.15;;;;;;;;;;5036263;28;20435;-93
2022/09/09 01:57:44;;;;;;;2.13;1.98;;;;;;;;;;5036282;28;20050;-91
2022/09/09 02:00:12;;;;;;;5.32;1.98;;;;;;;;;;5035253;28;20041;-93
2022/09/09 02:02:46;;;;;;;2.53;2.08;;;;;;;;;;5035175;28;20404;-92
2022/09/09 02:05:19;;;;;;;2.88;2.00;;;;;;;;;;5034775;28;20132;-91
2022/09/09 02:07:50;;;;;;;4.53;2.67;;;;;;;;;;5035244;28;20103;-92
2022/09/09 02:10:20;;;;;;;4.85;2.20;;;;;;;;;;5036298;28;20057;-91
2022/09/09 02:12:49;;;;;;;4.25;2.50;;;;;;;;;;5034814;28;20041;-92
2022/09/09 02:15:20;;;;;;;5.55;2.50;;;;;;;;;;5035090;28;20053;-91
2022/09/09 02:17:53;;;;;;;4.45;2.90;;;;;;;;;;5035933;28;20046;-92
2022/09/09 02:20:20;;;;;;;4.35;2.30;;;;;;;;;;5035736;28;20075;-92
2022/09/09 02:22:49;;;;;;;7.28;2.53;;;;;;;;;;5034973;28;20057;-91
2022/09/09 02:25:18;;;;;;;3.50;2.10;;;;;;;;;;5035905;28;20079;-92
2022/09/09 02:27:47;;;;;;;4.63;2.53;;;;;;;;;;5034916;28;20505;-91
2022/09/09 02:30:15;;;;;;;2.60;2.22;;;;;;;;;;5034729;28;20482;-92
2022/09/09 02:32:43;;;;;;;2.17;1.90;;;;;;;;;;5035596;28;20053;-91
2022/09/09 02:35:14;;;;;;;3.40;2.25;;;;;;;;;;5034726;28;20042;-92
2022/09/09 02:37:42;;;;;;;5.55;2.75;;;;;;;;;;5034801;28;20050;-92
2022/09/09 02:40:11;;;;;;;5.97;1.92;;;;;;;;;;5034564;28;20093;-91
2022/09/09 02:42:43;;;;;;;4.57;2.88;;;;;;;;;;5035654;28;20072;-92
2022/09/09 02:45:12;;;;;;;4.53;2.08;;;;;;;;;;5034374;28;20394;-92
2022/09/09 02:47:48;;;;;;;3.22;2.03;;;;;;;;;;5034581;28;20053;-91
2022/09/09 02:50:18;;;;;;;3.60;2.53;;;;;;;;;;5034760;28;20045;-90
2022/09/09 02:52:51;;;;;;;4.45;2.50;;;;;;;;;;5034828;28;20053;-92
2022/09/09 02:55:24;;;;;;;3.67;2.42;;;;;;;;;;5035671;28;20053;-92
2022/09/09 02:57:51;;;;;;;6.82;2.97;;;;;;;;;;5035199;28;20049;-92
2022/09/09 03:00:24;;;;;;;4.55;2.60;;;;;;;;;;5034177;28;20045;-91
2022/09/09 03:02:51;;;;;;;3.38;2.05;;;;;;;;;;5034093;28;20593;-91
2022/09/09 03:05:19;;;;;;;3.42;2.03;;;;;;;;;;5034853;28;20045;-91
2022/09/09 03:07:46;;;;;;;4.25;2.53;;;;;;;;;;5034185;28;20057;-92
2022/09/09 03:10:13;;;;;;;6.03;2.53;;;;;;;;;;5034910;28;20051;-91
2022/09/09 03:12:40;;;;;;;3.47;2.50;;;;;;;;;;5035033;28;20056;-91
2022/09/09 03:15:08;;;;;;;4.18;2.25;;;;;;;;;;5033994;28;20060;-91
2022/09/09 03:17:35;;;;;;;2.50;2.08;;;;;;;;;;5034959;28;20149;-90
2022/09/09 03:20:03;;;;;;;3.22;2.28;;;;;;;;;;5034722;28;20486;-92
2022/09/09 03:22:30;;;;;;;3.60;2.20;;;;;;;;;;5034056;28;20055;-90
2022/09/09 03:24:57;;;;;;;3.67;2.15;;;;;;;;;;5033213;28;20052;-91
2022/09/09 03:27:25;;;;;;;6.40;2.33;;;;;;;;;;5035104;28;20498;-91
2022/09/09 03:29:52;;;;;;;4.25;2.20;;;;;;;;;;5034874;28;20057;-91
2022/09/09 03:32:22;;;;;;;1.88;1.77;;;;;;;;;;5034865;28;20066;-92
2022/09/09 03:34:49;;;;;;;3.17;2.40;;;;;;;;;;5034751;28;20406;-90
2022/09/09 03:37:17;;;;;;;2.47;2.28;;;;;;;;;;5034639;28;20502;-90
2022/09/09 03:39:44;;;;;;;2.13;1.77;;;;;;;;;;5041427;28;20441;-91
2022/09/09 03:42:18;;;;;;;7.82;2.67;;;;;;;;;;5053435;28;20045;-91
2022/09/09 03:44:49;;;;;;;4.82;1.98;;;;;;;;;;5034303;28;20107;-92
2022/09/09 03:47:18;;;;;;;3.03;1.90;;;;;;;;;;5033475;28;20050;-91
2022/09/09 03:49:45;;;;;;;2.40;2.20;;;;;;;;;;5033197;28;20054;-91
2022/09/09 03:52:12;;;;;;;4.55;2.33;;;;;;;;;;5034136;28;20068;-91
2022/09/09 03:54:42;;;;;;;3.30;2.20;;;;;;;;;;5034220;28;20061;-92
2022/09/09 03:57:10;;;;;;;2.58;2.00;;;;;;;;;;5033440;28;20073;-92
2022/09/09 03:59:38;;;;;;;2.45;1.95;;;;;;;;;;5033209;28;20478;-91
2022/09/09 04:02:05;;;;;;;7.18;1.95;;;;;;;;;;5033395;28;20073;-91
2022/09/09 04:04:32;;;;;;;2.85;1.90;;;;;;;;;;5033901;28;20045;-92
2022/09/09 04:06:59;;;;;;;4.65;2.20;;;;;;;;;;5033527;28;20068;-92
2022/09/09 04:09:27;;;;;;;2.83;1.83;;;;;;;;;;5033790;28;20046;-91
2022/09/09 04:11:54;;;;;;;4.93;1.77;;;;;;;;;;5034338;28;20052;-91
2022/09/09 04:14:22;;;;;;;4.30;2.05;;;;;;;;;;5032938;28;20053;-91
2022/09/09 04:16:49;;;;;;;2.55;1.67;;;;;;;;;;5033924;28;20045;-92
2022/09/09 04:19:16;;;;;;;3.95;2.10;;;;;;;;;;5033105;28;20061;-92
2022/09/09 04:21:44;;;;;;;4.10;2.40;;;;;;;;;;5032608;28;20049;-92
2022/09/09 04:24:11;;;;;;;4.43;2.50;;;;;;;;;;5033015;28;20049;-93
2022/09/09 04:26:38;;;;;;;3.10;2.10;;;;;;;;;;5032933;28;20053;-92
2022/09/09 04:29:07;;;;;;;5.10;2.83;;;;;;;;;;5032997;28;20051;-92
2022/09/09 04:31:34;;;;;;;2.88;2.42;;;;;;;;;;5029172;28;20441;-91
2022/09/09 04:34:04;;;;;;;6.70;2.10;;;;;;;;;;5029088;28;20050;-92
2022/09/09 04:36:32;;;;;;;6.63;2.50;;;;;;;;;;5028692;28;20056;-92
2022/09/09 04:38:59;;;;;;;5.00;2.50;;;;;;;;;;5013941;28;20046;-91
2022/09/09 04:41:26;;;;;;;12.32;3.08;;;;;;;;;;5029168;28;20057;-90
2022/09/09 04:43:54;;;;;;;21.85;3.35;;;;;;;;;;5029082;28;20086;-91
2022/09/09 04:46:22;;;;;;;6.50;2.35;;;;;;;;;;5029812;28;20046;-91
2022/09/09 04:48:50;;;;;;;4.43;2.30;;;;;;;;;;5029207;28;20046;-91
2022/09/09 04:51:18;;;;;;;4.15;2.25;;;;;;;;;;5029480;28;20046;-91
2022/09/09 04:53:47;;;;;;;2.38;2.28;;;;;;;;;;5029305;28;20141;-91
2022/09/09 04:56:15;;;;;;;16.15;3.50;;;;;;;;;;5029093;28;20050;-91
2022/09/09 04:58:43;;;;;;;11.95;2.58;;;;;;;;;;5029128;28;20141;-92
2022/09/09 05:01:15;;;;;;;4.47;2.67;;;;;;;;;;5028523;28;20104;-93
2022/09/09 05:03:42;;;;;;;4.68;3.13;;;;;;;;;;5013800;28;20102;-91
2022/09/09 05:06:10;;;;;;;3.05;2.22;;;;;;;;;;5029147;28;20061;-91
2022/09/09 05:08:38;;;;;;;3.75;2.22;;;;;;;;;;5028812;28;20482;-90
2022/09/09 05:11:16;;;;;;;5.78;2.28;;;;;;;;;;5028826;28;20228;-93
2022/09/09 05:13:43;;;;;;;6.65;2.58;;;;;;;;;;5028952;28;20049;-91
2022/09/09 05:16:11;;;;;;;12.82;3.08;;;;;;;;;;5029478;28;20060;-92
2022/09/09 05:18:39;;;;;;;12.27;3.60;;;;;;;;;;5029242;28;20046;-91
2022/09/09 05:21:06;;;;;;;6.40;3.08;;;;;;;;;;5029244;28;20140;-92
2022/09/09 05:23:34;;;;;;;13.48;3.10;;;;;;;;;;5029061;28;20064;-91
2022/09/09 05:26:01;;;;;;;6.88;2.80;;;;;;;;;;5013472;28;20049;-92
2022/09/09 05:28:29;;;;;;;5.40;2.60;;;;;;;;;;5013576;28;20046;-91
2022/09/09 05:31:07;;;;;;;4.28;2.83;;;;;;;;;;5029047;28;20069;-92
2022/09/09 05:33:36;;;;;;;5.25;3.08;;;;;;;;;;5028863;28;20045;-91
2022/09/09 05:36:04;;;;;;;6.15;3.47;;;;;;;;;;5028796;28;20133;-91
2022/09/09 05:38:32;;;;;;;5.18;3.58;;;;;;;;;;5028843;28;20077;-92
2022/09/09 05:41:00;;;;;;;10.95;3.10;;;;;;;;;;5028877;28;20046;-91
2022/09/09 05:43:28;;;;;;;7.22;3.13;;;;;;;;;;5013437;28;20498;-93
2022/09/09 05:46:07;;;;;;;9.23;3.20;;;;;;;;;;5028739;28;20046;-91
2022/09/09 05:48:35;;;;;;;5.45;2.97;;;;;;;;;;5030725;28;20050;-92
2022/09/09 05:51:03;;;;;;;6.25;3.20;;;;;;;;;;5032235;28;20085;-92
2022/09/09 05:53:34;;;;;;;2.95;2.45;;;;;;;;;;5032201;28;20050;-92
2022/09/09 05:56:03;;;;;;;4.05;3.05;;;;;;;;;;5035662;28;20041;-92
2022/09/09 05:58:31;;;;;;;15.63;4.30;;;;;;;;;;5042006;28;20053;-92
2022/09/09 06:01:02;;;;;;;15.02;4.55;;;;;;;;;;5016814;28;20046;-91
2022/09/09 06:03:29;;;;;;;18.95;4.80;;;;;;;;;;5031982;28;20486;-92
2022/09/09 06:06:07;;;;;;;8.20;3.67;;;;;;;;;;5031947;28;20053;-93
2022/09/09 06:08:36;;;;;;;6.50;3.92;;;;;;;;;;5031714;28;20061;-91
2022/09/09 06:11:08;;;;;;;9.07;3.75;;;;;;;;;;5032025;28;20042;-92
2022/09/09 06:13:38;;;;;;;4.07;2.70;;;;;;;;;;5031842;28;20144;-91
2022/09/09 06:16:07;;;;;;;8.02;2.85;;;;;;;;;;5045182;28;20113;-91
2022/09/09 06:18:34;;;;;;;7.43;2.42;;;;;;;;;;5030334;28;20119;-92
2022/09/09 06:21:06;;;;;;;6.55;2.25;;;;;;;;;;5031693;28;20096;-91
2022/09/09 06:23:37;;;;;;;10.15;2.85;;;;;;;;;;5031749;28;20050;-91
2022/09/09 06:26:12;;;;;;;11.73;3.15;;;12.70;99.90;;;;;;5031442;28;20537;-91
2022/09/09 06:28:39;;;;;;;20.25;3.80;;;12.80;99.90;;;;;;5016386;28;20133;-90
2022/09/09 06:31:09;;;;;;;18.90;4.10;;;12.90;99.90;;;;;;5015362;28;20066;-90
2022/09/09 06:33:40;;;;;;;10.18;2.20;;;13.00;99.90;;;;;;5015963;28;20060;-91
2022/09/09 06:36:13;;;;;;;4.20;2.08;;;13.00;99.90;;;;;;5015035;28;20061;-92
2022/09/09 06:38:41;;;;;;;1.70;1.60;;;13.10;99.90;;;;;;5015977;28;20054;-91
2022/09/09 06:41:10;;;;;;;3.22;1.52;;;13.20;99.90;;;;;;5015976;28;20133;-90
2022/09/09 06:43:37;;;;;;;1.65;1.52;;;;;;;;;;5015079;28;20413;-90
2022/09/09 06:46:06;;;;;;;43.78;7.18;;;;;;;;;;5031205;28;20046;-92
2022/09/09 06:48:33;;;;;;;45.75;6.40;;;;;;;;;;5031416;28;20509;-92
2022/09/09 06:51:07;;;;;;;25.13;4.90;;;;;;;;;;5015750;28;20089;-91
2022/09/09 06:53:35;;;;;;;27.30;4.07;;;;;;;;;;5031242;28;20478;-92
2022/09/09 06:56:23;;;;;;;21.27;3.40;;;;;;;;;;5031079;28;20050;-91
2022/09/09 06:58:54;;;;;;;19.48;3.22;;;;;;;;;;5031296;28;20418;-92
2022/09/09 07:01:23;;;;;;;8.45;2.65;;;;;;;;;;5014677;28;20046;-91
2022/09/09 07:03:52;;;;;;;10.85;2.47;;;;;;;;;;5015369;28;20498;-92
2022/09/09 07:06:20;;;;;;;9.43;2.03;;;;;;;;;;5030979;28;20465;-90
2022/09/09 07:08:54;;;;;;;3.60;1.00;;;;;;;;;;5031087;28;20105;-90
2022/09/09 07:11:29;;;;;;;2.35;1.05;;;;;;;;;;5030189;28;20562;-90
2022/09/09 07:13:59;;;;;;;4.45;1.08;;;;;;;;;;5015036;28;20053;-91
2022/09/09 07:16:27;;;;;;;3.28;1.13;;;;;;;;;;5030489;28;20145;-90
2022/09/09 07:18:57;;;;;;;1.92;1.08;;;;;;;;;;5015376;28;20140;-91
2022/09/09 07:21:28;;;;;;;2.85;1.38;;;;;;;;;;5030590;28;20050;-88
2022/09/09 07:23:56;;;;;;;3.35;1.45;;;;;;;;;;5015019;28;20054;-89
2022/09/09 07:26:25;;;;;;;3.47;0.90;;;;;;;;;;5030259;28;20070;-88
2022/09/09 07:28:53;;;;;;;1.02;0.73;;;;;;;;;;5014902;28;20054;-89
2022/09/09 07:31:23;;;;;;;2.03;0.93;;;;;;;;;;5023085;28;20053;-91
2022/09/09 07:33:51;;;;;;;1.30;0.98;;;;;;;;;;5033401;28;20049;-89
2022/09/09 07:36:21;;;;;;;1.00;0.90;;;;;;;;;;5034422;28;20049;-90
2022/09/09 07:38:51;;;;;;;1.20;0.90;;;;;;;;;;5033696;28;20057;-91
2022/09/09 07:41:20;;;;;;;5.65;3.92;;;;;;;;;;5033157;28;20061;-90
2022/09/09 07:43:48;;;;;;;7.38;5.88;;;;;;;;;;5034515;28;20132;-89
2022/09/09 07:46:15;;;;;;;2.88;1.50;;;;;;;;;;5034350;28;20171;-88
2022/09/09 07:48:46;;;;;;;5.15;1.10;;;;;;;;;;5035230;28;20101;-90
2022/09/09 07:51:19;;;;;;;5.13;1.20;;;;;;;;;;5035227;28;20056;-89
2022/09/09 07:53:47;;;;;;;3.22;0.77;;;;;;;;;;5034220;28;20053;-90
2022/09/09 07:56:16;;;;;;;4.47;0.90;;;;;;;;;;5033764;28;20065;-91
2022/09/09 07:58:45;;;;;;;2.97;1.05;;;;;;;;;;5034349;28;20081;-88
2022/09/09 08:01:17;;;;;;;1.48;0.60;;;;;;;;;;5033685;28;20048;-90
2022/09/09 08:03:45;;;;;;;3.15;0.70;;;;;;;;;;5034334;28;20053;-89
2022/09/09 08:06:13;;;;;;;4.03;0.90;;;;;;;;;;5034080;28;20051;-89
2022/09/09 08:08:43;;;;;;;4.18;0.70;;;;;;;;;;5034334;28;20053;-87
2022/09/09 08:11:17;;;;;;;2.60;0.77;;;;;;;;;;5034846;28;20049;-91
2022/09/09 08:13:44;;;;;;;6.38;0.68;;;;;;;;;;5033885;28;20053;-90
2022/09/09 08:16:16;;;;;;;3.10;0.77;;;;;;;;;;5034873;28;20060;-89
2022/09/09 08:18:45;;;;;;;4.13;0.70;;;;;;;;;;5034362;28;20538;-93
2022/09/09 08:21:14;;;;;;;2.40;0.70;;;;;;;;;;5035596;28;20132;-91
2022/09/09 08:23:45;;;;;;;2.90;0.70;;;;;;;;;;5034012;28;20160;-93
2022/09/09 08:26:14;;;;;;;3.05;0.82;;;;;;;;;;5033841;28;20046;-91
2022/09/09 08:28:43;;;;;;;1.58;0.73;;;;;;;;;;5035409;28;20053;-91
2022/09/09 08:31:11;;;;;;;4.55;1.10;;;;;;;;;;5030646;28;20064;-88
2022/09/09 08:33:41;;;;;;;2.35;0.65;;;;;;;;;;5015402;28;20053;-94
2022/09/09 08:36:10;;;;;;;1.65;0.73;;;;;;;;;;5015023;28;20061;-90
2022/09/09 08:38:38;;;;;;;2.97;0.50;;;;;;;;;;5030727;28;20050;-90
2022/09/09 08:41:24;;;;;;;3.10;0.60;;;;;;;;;;5029830;28;20060;-89
2022/09/09 08:43:52;;;;;;;1.98;0.50;;;;;;;;;;5030262;28;20046;-90
2022/09/09 08:46:29;;;;;;;2.22;0.65;;;;;;;;;;5029667;28;20425;-92
2022/09/09 08:48:59;;;;;;;4.78;0.90;;;;;;;;;;5029587;28;20047;-93
2022/09/09 08:51:28;;;;;;;2.03;0.60;;;;;;;;;;5042141;28;20078;-89
2022/09/09 08:53:57;;;;;;;3.42;0.85;;;;;;;;;;5021038;28;20085;-89
2022/09/09 08:56:27;;;;;;;3.25;0.73;;;;;;;;;;5029466;28;20045;-91
2022/09/09 08:58:55;;;;;;;4.25;0.88;;;;;;;;;;5030718;28;20050;-89
2022/09/09 09:01:41;;;;;;;4.97;0.70;;;;;;;;;;5031348;28;20430;-91
2022/09/09 09:04:20;;;;;;;2.15;0.73;;;;;;;;;;5032143;28;20050;-89
2022/09/09 09:06:55;;;;;;;4.22;0.90;;;;;;;;;;5029280;28;20096;-90
2022/09/09 09:09:31;;;;;;;7.95;0.75;;;;;;;;;;5029399;28;20046;-88
2022/09/09 09:12:03;;;;;;;5.03;1.00;;;;;;;;;;5013426;28;20129;-91
2022/09/09 09:14:35;;;;;;;2.00;0.70;;;;;;;;;;5013737;28;20054;-93
2022/09/09 09:17:04;;;;;;;7.38;0.80;;;;;;;;;;5029051;28;20411;-90
2022/09/09 09:19:33;;;;;;;2.72;0.70;;;;;;;;;;5028964;28;20414;-89
2022/09/09 09:22:04;;;;;;;3.65;0.70;;;;;;;;;;5028898;28;20046;-89
2022/09/09 09:24:38;;;;;;;4.53;0.75;;;;;;;;;;5017168;28;20458;-94
2022/09/09 09:27:05;;;;;;;;;;;;;;;;;;5034979;28;20049;-89
2022/09/09 09:29:32;;;;;;;5.40;0.88;;;;;;;;;;5018619;28;19928;-91
2022/09/09 09:32:12;;;;;;;2.10;1.00;;;;;;;;;;5033756;28;20506;-90
2022/09/09 09:34:40;;;;;;;5.00;0.93;;;;;;;;;;5034021;28;20049;-88
2022/09/09 09:37:19;;;;;;;5.95;0.73;;;;;;;;;;5033520;28;20054;-92
2022/09/09 09:39:49;;;;;;;1.20;0.60;;;;;;;;;;5017592;28;20060;-94
2022/09/09 09:42:32;;;;;;;4.05;1.00;;;;;;;;;;5031429;28;20054;-86
2022/09/09 09:45:15;;;;;;;1.83;0.70;;;;;;;;;;5017533;28;20398;-89
2022/09/09 09:47:42;;;;;;;2.13;0.70;;;;;;;;;;5033691;28;20050;-93
2022/09/09 09:50:20;;;;;;;3.38;0.95;;;;;;;;;;5032835;28;20065;-91
2022/09/09 09:52:55;;;;;;;4.75;1.15;;;;;;;;;;5033036;28;20078;-92
2022/09/09 09:55:23;;;;;;;3.13;0.50;;;;;;;;;;5032620;28;20060;-90
2022/09/09 09:57:51;;;;;;;2.65;0.70;;;;;;;;;;5032506;28;20046;-94
2022/09/09 10:00:20;;;;;;;3.05;0.70;;;;;;;;;;5032414;28;20482;-92
2022/09/09 10:02:48;;;;;;;1.63;0.55;;;;;;;;;;5032490;28;20061;-92
2022/09/09 10:05:29;;;;;;;3.58;0.90;;;;;;;;;;5032504;28;20059;-92
2022/09/09 10:08:06;;;;;;;5.80;0.70;;;;;;;;;;5032030;28;20045;-90
2022/09/09 10:10:38;;;;;;;4.18;0.90;;;;;;;;;;5033078;28;20084;-87
2022/09/09 10:13:10;;;;;;;5.30;1.10;;;;;;;;;;5032352;28;20410;-93
2022/09/09 10:15:46;;;;;;;3.20;0.80;;;;;;;;;;5032581;28;20108;-91
2022/09/09 10:18:32;;;;;;;3.08;0.88;;;;;;;;;;5031873;28;20046;-92
2022/09/09 10:21:15;;;;;;;2.05;0.60;;;;;;;;;;5032115;28;20540;-89
2022/09/09 10:23:59;;;;;;;6.63;0.80;;;;;;;;;;5031607;28;20045;-88
2022/09/09 10:26:38;;;;;;;4.55;0.68;;;;;;;;;;5032084;28;20056;-90
2022/09/09 10:29:08;;;;;;;4.28;0.80;;;;;;;;;;5032118;28;20046;-91
2022/09/09 10:31:39;;;;;;;2.75;0.75;;;;;;;;;;5032186;28;20494;-94
2022/09/09 10:34:14;;;;;;;3.63;0.57;;;;;;;;;;5031833;28;20549;-93
2022/09/09 10:36:45;;;;;;;2.78;0.90;;;;;;;;;;5031286;28;20041;-91
2022/09/09 10:39:15;;;;;;;5.45;0.82;;;;;;;;;;5032102;28;20058;-92
2022/09/09 10:41:56;;;;;;;2.13;0.70;;;;;;;;;;5032121;28;20057;-93
2022/09/09 10:44:39;;;;;;;2.88;0.60;;;;;;;;;;5017715;28;20080;-91
2022/09/09 10:47:13;;;;;;;3.85;0.80;;;;;;;;;;5031808;28;20057;-90
2022/09/09 10:49:51;;;;;;;2.63;0.75;;;;;;;;;;5031472;28;20079;-89
2022/09/09 10:52:28;;;;;;;1.58;0.57;;;;;;;;;;5016119;28;20053;-91
2022/09/09 10:55:00;;;;;;;5.28;0.95;;;;;;;;;;5031249;28;20053;-94
2022/09/09 10:57:41;;;;;;;2.22;0.60;;;;;;;;;;5031193;28;20050;-90
2022/09/09 11:00:20;;;;;;;2.72;0.40;;;;;;;;;;5032053;28;20057;-91
2022/09/09 11:02:56;;;;;;;2.63;0.80;;;;;;;;;;5030654;28;20045;-89
2022/09/09 11:05:30;;;;;;;1.45;0.60;;;;;;;;;;5030981;28;20088;-90
2022/09/09 11:08:03;;;;;;;1.52;0.70;;;;;;;;;;5030904;28;20048;-90
2022/09/09 11:10:34;;;;;;;6.72;0.77;;;;;;;;;;5015325;28;20061;-89
2022/09/09 11:13:03;;;;;;;1.85;0.65;;;;;;;;;;5030649;28;20478;-89
2022/09/09 11:15:41;;;;;;;3.30;0.88;;;;;;;;;;5030710;28;20049;-87
2022/09/09 11:18:11;;;;;;;1.25;0.50;;;;;;;;;;5031115;28;20045;-89
2022/09/09 11:20:39;;;;;;;5.28;1.23;;;;;;;;;;5026459;28;20046;-86
2022/09/09 11:23:13;;;;;;;8.40;1.52;;;;;;;;;;5017652;28;20054;-87
2022/09/09 11:25:42;;;;;;;8.00;1.42;;;;;;;;;;5015043;28;20050;-90
2022/09/09 11:28:27;;;;;;;8.27;1.73;;;;;;;;;;5015417;28;20061;-89
2022/09/09 11:31:13;;;;;;;2.55;0.57;;;;;;;;;;5030396;28;20070;-88
2022/09/09 11:33:44;;;;;;;1.13;0.60;;;;;;;;;;5014713;28;20053;-90
2022/09/09 11:36:24;;;;;;;3.85;1.33;;;;;;;;;;5030539;28;20104;-91
2022/09/09 11:38:52;;;;;;;3.35;0.40;;;;;;;;;;5031028;28;20053;-90
2022/09/09 11:41:21;;;;;;;8.07;1.00;;;;;;;;;;5014770;28;20075;-90
2022/09/09 11:43:51;;;;;;;3.08;0.50;;;;;;;;;;5029781;28;20509;-91
2022/09/09 11:46:20;;;;;;;5.18;0.60;;;;;;;;;;5029762;28;20144;-90
2022/09/09 11:49:00;;;;;;;2.55;0.50;;;;;;;;;;5030343;28;20050;-91
2022/09/09 11:51:30;;;;;;;1.90;0.93;;;;;;;;;;5030182;28;20053;-90
2022/09/09 11:54:02;;;;;;;2.97;0.95;;;;;;;;;;5030041;28;20085;-89
2022/09/09 11:56:34;;;;;;;3.42;0.85;;;;;;;;;;5014519;28;20045;-90
2022/09/09 11:59:05;;;;;;;2.40;0.50;;;;;;;;;;5014781;28;20058;-90
2022/09/09 12:01:32;;;;;;;2.45;0.80;;;;;;;;;;5029867;28;20046;-91
2022/09/09 12:04:09;;;;;;;1.80;0.73;;;;;;;;;;5029317;28;20061;-90
2022/09/09 12:06:45;;;;;;;4.15;0.85;;;;;;;;;;5029960;28;20140;-89
2022/09/09 12:09:30;;;;;;;3.42;0.65;;;;;;;;;;5030457;28;20056;-92
2022/09/09 12:12:08;;;;;;;4.60;0.80;;;;;;;;;;5030654;28;20061;-93
2022/09/09 12:14:43;;;;;;;3.85;0.70;;;;;;;;;;5030374;28;20054;-91
2022/09/09 12:17:17;;;;;;;2.05;0.70;;;;;;;;;;5030097;28;20108;-93
2022/09/09 12:19:44;;;;;;;1.65;0.47;;;;;;;;;;5029933;28;20046;-87
2022/09/09 12:22:34;;;;;;;3.17;0.60;;;;;;;;;;5029545;28;20113;-90
2022/09/09 12:25:01;;;;;;;3.85;0.63;;;;;;;;;;5029375;28;20053;-91
2022/09/09 12:27:45;;;;;;;7.50;0.90;;;;;;;;;;5029503;28;20057;-89
2022/09/09 12:30:15;;;;;;;4.35;0.88;;;;;;;;;;5029658;28;20053;-87
2022/09/09 12:32:44;;;;;;;3.47;0.65;;;;;;;;;;5029202;28;20053;-89
2022/09/09 12:35:22;;;;;;;3.70;0.43;;;;;;;;;;5029320;28;20050;-90
2022/09/09 12:37:49;;;;;;;3.42;0.60;;;;;;;;;;5013870;28;20050;-88
2022/09/09 12:40:21;;;;;;;1.80;0.50;;;;;;;;;;5013901;28;20407;-90
2022/09/09 12:42:50;;;;;;;1.80;0.60;;;;;;;;;;5029495;28;20137;-89
2022/09/09 12:45:26;;;;;;;5.05;0.75;;;;;;;;;;5013619;28;20065;-91
2022/09/09 12:48:01;;;;;;;3.53;0.60;;;;;;;;;;5029097;28;20483;-91
2022/09/09 12:50:30;;;;;;;1.40;0.70;;;;;;;;;;5013795;28;20064;-91
2022/09/09 12:52:59;;;;;;;1.92;0.57;;;;;;;;;;5029372;28;20054;-90
2022/09/09 12:55:31;;;;;;;3.25;0.68;;;;;;;;;;5013668;28;20050;-89
2022/09/09 12:57:59;;;;;;;3.65;0.70;;;;;;;;;;5029894;28;20050;-89
2022/09/09 13:00:27;;;;;;;1.08;0.68;;;;;;;;;;5033176;28;20049;-91
2022/09/09 13:02:56;;;;;;;2.05;0.60;;;;;;;;;;5032984;28;20414;-91
2022/09/09 13:05:24;;;;;;;3.97;0.50;;;;;;;;;;5033034;28;20558;-91
2022/09/09 13:07:52;;;;;;;4.53;0.80;;;;;;;;;;5033058;28;20042;-90
2022/09/09 13:10:26;;;;;;;4.13;0.60;;;;;;;;;;5033095;28;20065;-90
2022/09/09 13:13:14;;;;;;;11.23;1.10;;;;;;;;;;5030570;28;20107;-88
2022/09/09 13:15:48;;;;;;;4.55;0.50;;;;;;;;;;5032999;28;20049;-85
2022/09/09 13:18:19;;;;;;;4.78;0.77;;;;;;;;;;5032994;28;20080;-90
2022/09/09 13:20:47;;;;;;;5.97;1.42;;;;;;;;;;5032958;28;20113;-86
2022/09/09 13:23:15;;;;;;;3.83;0.60;;;;;;;;;;5034853;28;20057;-95
2022/09/09 13:25:53;;;;;;;6.60;0.77;;;;;;;;;;5040386;28;20109;-96
2022/09/09 13:28:21;;;;;;;2.97;0.90;;;;;;;;;;5044416;28;20056;-96
2022/09/09 13:30:59;;;;;;;3.08;0.70;;;;;;;;;;5036449;28;20062;-96
2022/09/09 13:33:31;;;;;;;9.77;1.08;;;;;;;;;;5038732;28;20095;-93
2022/09/09 13:36:00;;;;;;;3.67;1.17;;;;;;;;;;5035737;28;20053;-92
2022/09/09 13:38:28;;;;;;;2.63;0.60;;;;;;;;;;5036222;28;20085;-92
2022/09/09 13:41:01;;;;;;;7.55;0.75;;;;;;;;;;5037260;28;20072;-91
2022/09/09 13:43:29;;;;;;;1.52;0.75;;;;;;;;;;5042750;28;20055;-94
2022/09/09 13:45:57;;;;;;;2.35;0.40;;;;;;;;;;5051194;28;20068;-94
2022/09/09 13:48:25;;;;;;;4.30;0.80;;;;;;;;;;5044935;28;20556;-94
2022/09/09 13:51:00;;;;;;;4.65;0.75;;;;;;;;;;5037581;28;20112;-93
2022/09/09 13:53:28;;;;;;;4.63;1.05;;;;;;;;;;5035778;28;20132;-92
2022/09/09 13:55:56;;;;;;;4.78;0.88;;;;;;;;;;5035888;28;20053;-92
2022/09/09 13:58:24;;;;;;;8.20;0.63;;;;;;;;;;5035405;28;20053;-93
2022/09/09 14:00:53;;;;;;;4.43;0.35;;;;;;;;;;5036653;28;20057;-92
2022/09/09 14:03:21;;;;;;;2.17;0.50;;;;;;;;;;5035396;28;20046;-93
2022/09/09 14:05:48;;;;;;;1.27;0.38;;;;;;;;;;5035865;28;20497;-93
2022/09/09 14:08:22;;;;;;;3.15;0.70;;;;;;;;;;5038855;28;20056;-94
2022/09/09 14:10:49;;;;;;;4.85;0.88;;;;;;;;;;5036130;28;20141;-95
2022/09/09 14:13:16;;;;;;;2.05;0.50;;;;;;;;;;5036168;28;20060;-95
2022/09/09 14:15:43;;;;;;;1.38;0.70;;;;;;;;;;5041314;28;20079;-94
2022/09/09 14:18:13;;;;;;;0.40;0.30;;;;;;;;;;5042113;28;20049;-96
2022/09/09 14:20:40;;;;;;;0.90;0.57;;;;;;;;;;5038279;28;20517;-92
2022/09/09 14:23:10;;;;;;;2.17;0.40;;;;;;;;;;5038385;28;20426;-96
2022/09/09 14:25:39;;;;;;;3.13;0.60;;;;;;;;;;5040007;28;20144;-95
2022/09/09 14:28:08;;;;;;;2.47;0.45;;;;;;;;;;5052151;28;20050;-96
2022/09/09 14:30:35;;;;;;;1.67;0.60;;;;;;;;;;5054593;28;20123;-96
2022/09/09 14:33:02;;;;;;;3.67;0.60;;;;;;;;;;5052783;28;20037;-96
2022/09/09 14:35:30;;;;;;;2.42;0.40;;;;;;;;;;5050713;28;20252;-94
2022/09/09 14:37:57;;;;;;;1.52;0.30;;;;;;;;;;5040708;28;20105;-95
2022/09/09 14:40:24;;;;;;;2.05;0.28;;;;;;;;;;5043232;28;20063;-96
2022/09/09 14:42:52;;;;;;;3.10;0.30;;;;;;;;;;5040690;28;20417;-94
2022/09/09 14:45:24;;;;;;;0.63;0.43;;;;;;;;;;5042581;28;20125;-96
2022/09/09 14:47:52;;;;;;;2.70;0.40;;;;;;;;;;5041010;28;20055;-94
2022/09/09 14:50:19;;;;;;;1.13;0.40;;;;;;;;;;5038100;28;20490;-91
2022/09/09 14:52:47;;;;;;;1.55;0.40;;;;;;;;;;5038427;28;20420;-95
2022/09/09 14:55:14;;;;;;;1.75;0.45;;;;;;;;;;5042158;28;20517;-94
2022/09/09 14:57:42;;;;;;;2.05;0.40;;;;;;;;;;5039791;28;20056;-93
2022/09/09 15:00:10;;;;;;;1.65;0.50;;;;;;;;;;5037099;28;20053;-92
2022/09/09 15:02:38;;;;;;;0.70;0.20;;;;;;;;;;5036589;28;20048;-92